Homestown, Missouri
Current Conditions -  °F | °C
As of 3:53 AM on Saturday 20 Dec 2014 (Local Time) from KHKA Reporting Station
Overcast Overcast  
Wind Chill: 33°   Ceiling: 4100
Heat Index: 38°   Visibility: 10mi
Dew Point: 33°   Wind: 6mph
Humidity: 83%   Direction: 60°ENE
Pressure: 30.25"   Gusts: NA
Location:  36.3524°N, 89.8327°W
Report Text: KHKA 200953Z AUTO 06005KT 10SM OVC041 03/01 A3025 RMK AO2 SLP243 T00330006
Loading
Personal Weather Stations






























Interactive Weather Map New forecast layout! Learn more

10-Day Weather Forecast

Advertisements
Track Severe Weather on mobile